createdAt,value
2022-07-30T00:02:20.474Z,21.50
2022-07-30T00:05:07.712Z,21.50
2022-07-30T00:07:55.517Z,21.40
2022-07-30T00:10:42.201Z,21.20
2022-07-30T00:13:29.590Z,21.20
2022-07-30T00:16:16.088Z,21.10
2022-07-30T00:19:03.079Z,21.00
2022-07-30T00:21:50.324Z,20.70
2022-07-30T00:24:38.334Z,20.40
2022-07-30T00:27:24.840Z,20.30
2022-07-30T00:30:12.111Z,20.30
2022-07-30T00:32:58.829Z,20.30
2022-07-30T00:35:45.701Z,20.20
2022-07-30T00:38:31.874Z,20.10
2022-07-30T00:41:19.522Z,19.90
2022-07-30T00:44:06.218Z,19.70
2022-07-30T00:46:53.202Z,19.60
2022-07-30T00:49:44.165Z,19.50
2022-07-30T00:52:31.242Z,19.40
2022-07-30T00:55:17.585Z,19.40
2022-07-30T00:58:05.335Z,19.40
2022-07-30T01:00:51.643Z,19.40
2022-07-30T01:03:38.825Z,19.40
2022-07-30T01:06:25.642Z,19.40
2022-07-30T01:09:12.245Z,19.40
2022-07-30T01:11:59.134Z,19.30
2022-07-30T01:14:47.056Z,19.20
2022-07-30T01:17:34.657Z,19.20
2022-07-30T01:20:27.085Z,19.00
2022-07-30T01:23:20.905Z,18.90
2022-07-30T01:26:10.912Z,18.80
2022-07-30T01:28:57.624Z,18.70
2022-07-30T01:31:45.671Z,18.60
2022-07-30T01:34:35.686Z,18.60
2022-07-30T01:37:22.721Z,18.60
2022-07-30T01:40:11.133Z,18.60
2022-07-30T01:43:01.120Z,18.70
2022-07-30T01:45:48.280Z,18.60
2022-07-30T01:48:37.827Z,18.70
2022-07-30T01:51:25.006Z,18.70
2022-07-30T01:54:13.636Z,18.70
2022-07-30T01:57:01.591Z,18.70
2022-07-30T01:59:53.031Z,18.80
2022-07-30T02:02:41.210Z,18.90
2022-07-30T02:05:30.219Z,19.00
2022-07-30T02:08:23.122Z,19.10
2022-07-30T02:11:11.465Z,19.00
2022-07-30T02:13:58.841Z,19.10
2022-07-30T02:16:50.378Z,19.20
2022-07-30T02:19:41.750Z,19.10
2022-07-30T02:22:32.738Z,18.90
2022-07-30T02:25:22.166Z,18.70
2022-07-30T02:28:12.530Z,18.50
2022-07-30T02:31:01.460Z,18.30
2022-07-30T02:33:51.534Z,18.20
2022-07-30T02:36:39.771Z,18.20
2022-07-30T02:39:27.389Z,18.20
2022-07-30T02:42:15.649Z,18.30
2022-07-30T02:45:02.870Z,18.30
2022-07-30T02:47:53.237Z,18.50
2022-07-30T02:50:41.619Z,18.60
2022-07-30T02:53:28.934Z,18.60
2022-07-30T02:56:16.899Z,18.70
2022-07-30T02:59:06.035Z,18.70
2022-07-30T03:01:53.187Z,18.70
2022-07-30T03:04:40.916Z,18.60
2022-07-30T03:07:29.718Z,18.60
2022-07-30T03:10:17.131Z,18.70
2022-07-30T03:13:05.686Z,18.80
2022-07-30T03:15:53.632Z,18.80
2022-07-30T03:18:41.563Z,18.90
2022-07-30T03:21:29.867Z,19.00
2022-07-30T03:24:19.338Z,19.00
2022-07-30T03:27:07.226Z,19.00
2022-07-30T03:29:55.257Z,19.00
2022-07-30T03:32:43.014Z,19.00
2022-07-30T03:35:31.104Z,19.00
2022-07-30T03:38:19.235Z,19.10
2022-07-30T03:41:08.655Z,19.10
2022-07-30T03:43:56.329Z,19.00
2022-07-30T03:46:43.913Z,19.10
2022-07-30T03:49:30.534Z,19.20
2022-07-30T03:52:17.359Z,19.20
2022-07-30T03:55:04.745Z,19.20
2022-07-30T03:57:52.573Z,19.20
2022-07-30T04:00:40.718Z,19.10
2022-07-30T04:03:27.924Z,19.10
2022-07-30T04:06:16.434Z,19.10
2022-07-30T04:09:03.030Z,19.10
2022-07-30T04:14:43.522Z,19.50
2022-07-30T04:17:36.185Z,19.50
2022-07-30T04:20:25.779Z,19.40
2022-07-30T04:23:13.000Z,19.40
2022-07-30T04:25:59.818Z,19.40
2022-07-30T04:28:47.104Z,19.30
2022-07-30T04:31:38.377Z,19.40
2022-07-30T04:34:28.022Z,19.30
2022-07-30T04:37:16.039Z,19.30
2022-07-30T04:40:02.762Z,19.50
2022-07-30T04:42:49.524Z,19.70
2022-07-30T04:45:37.132Z,19.80
2022-07-30T04:48:26.641Z,19.90
2022-07-30T04:51:17.963Z,19.90
2022-07-30T04:54:07.673Z,20.00
2022-07-30T04:56:54.757Z,19.90
2022-07-30T04:59:41.217Z,19.80
2022-07-30T05:02:31.647Z,19.80
2022-07-30T05:05:21.278Z,20.00
2022-07-30T05:08:08.522Z,20.00
2022-07-30T05:10:55.021Z,20.10
2022-07-30T05:13:43.079Z,20.10
2022-07-30T05:16:34.083Z,20.10
2022-07-30T05:19:20.873Z,20.20
2022-07-30T05:22:08.662Z,20.10
2022-07-30T05:24:55.031Z,20.20
2022-07-30T05:27:41.353Z,20.20
2022-07-30T05:30:27.905Z,20.00
2022-07-30T05:33:15.863Z,19.80
2022-07-30T05:36:03.006Z,19.60
2022-07-30T05:38:50.695Z,19.40
2022-07-30T05:41:37.241Z,19.20
2022-07-30T05:44:24.236Z,19.10
2022-07-30T05:47:10.821Z,19.10
2022-07-30T05:50:00.364Z,19.20
2022-07-30T05:52:49.457Z,19.00
2022-07-30T05:55:37.143Z,19.10
2022-07-30T05:58:23.528Z,19.10
2022-07-30T06:01:10.011Z,19.10
2022-07-30T06:03:56.628Z,19.10
2022-07-30T06:06:42.843Z,19.00
2022-07-30T06:09:36.914Z,19.00
2022-07-30T06:12:24.821Z,19.00
2022-07-30T06:15:11.795Z,18.90
2022-07-30T06:18:02.159Z,18.90
2022-07-30T06:20:51.578Z,18.80
2022-07-30T06:23:38.107Z,18.80
2022-07-30T06:26:24.689Z,18.80
2022-07-30T06:29:13.430Z,18.80
2022-07-30T06:32:00.404Z,18.80
2022-07-30T06:34:46.737Z,18.80
2022-07-30T06:38:04.955Z,18.70
2022-07-30T06:40:40.809Z,18.70
2022-07-30T06:43:28.011Z,18.80
2022-07-30T06:46:15.752Z,18.80
2022-07-30T06:49:03.228Z,18.80
2022-07-30T06:51:50.299Z,18.80
2022-07-30T06:54:36.510Z,19.00
2022-07-30T06:57:22.803Z,19.20
2022-07-30T07:00:10.967Z,19.30
2022-07-30T07:02:58.525Z,19.30
2022-07-30T07:05:45.127Z,19.60
2022-07-30T07:08:31.753Z,19.70
2022-07-30T07:11:18.250Z,19.70
2022-07-30T07:14:05.087Z,19.60
2022-07-30T07:16:51.968Z,19.70
2022-07-30T07:20:00.737Z,19.90
2022-07-30T07:22:46.243Z,20.00
2022-07-30T07:25:32.634Z,19.90
2022-07-30T07:28:19.262Z,19.90
2022-07-30T07:31:05.589Z,19.90
2022-07-30T07:33:54.399Z,19.90
2022-07-30T07:36:42.355Z,20.10
2022-07-30T07:39:28.625Z,20.10
2022-07-30T07:42:14.923Z,19.90
2022-07-30T07:45:01.749Z,20.00
2022-07-30T07:47:52.105Z,20.00
2022-07-30T07:50:40.322Z,20.00
2022-07-30T07:53:28.368Z,19.90
2022-07-30T07:56:15.021Z,19.90
2022-07-30T07:59:02.325Z,19.90
2022-07-30T08:01:50.712Z,19.90
2022-07-30T08:04:38.021Z,20.00
2022-07-30T08:07:24.869Z,20.00
2022-07-30T08:10:14.024Z,20.00
2022-07-30T08:13:00.347Z,20.00
2022-07-30T08:15:46.782Z,20.00
2022-07-30T08:18:33.220Z,20.00
2022-07-30T08:21:19.571Z,19.90
2022-07-30T08:24:07.662Z,19.90
2022-07-30T08:26:55.374Z,19.80
2022-07-30T08:29:41.635Z,19.90
2022-07-30T08:32:27.891Z,19.80
2022-07-30T08:35:14.494Z,19.90
2022-07-30T08:38:00.954Z,19.90
2022-07-30T08:40:47.754Z,19.90
2022-07-30T08:43:37.338Z,20.00
2022-07-30T08:46:26.242Z,20.20
2022-07-30T08:49:14.275Z,20.30
2022-07-30T08:52:00.964Z,20.40
2022-07-30T08:54:48.009Z,20.50
2022-07-30T08:57:36.277Z,20.40
2022-07-30T09:00:24.105Z,20.30
2022-07-30T09:03:10.456Z,20.20
2022-07-30T09:05:56.782Z,20.20
2022-07-30T09:08:43.538Z,20.20
2022-07-30T09:11:29.947Z,20.20
2022-07-30T09:14:23.123Z,20.30
2022-07-30T09:17:18.767Z,20.20
2022-07-30T09:20:06.699Z,20.20
2022-07-30T09:22:55.513Z,20.30
2022-07-30T09:25:43.680Z,20.50
2022-07-30T09:28:34.191Z,20.60
2022-07-30T09:31:21.947Z,20.60
2022-07-30T09:34:25.809Z,20.50
2022-07-30T09:37:20.022Z,20.50
2022-07-30T09:40:32.349Z,20.50
2022-07-30T09:43:27.315Z,20.30
2022-07-30T09:46:17.563Z,20.10
2022-07-30T09:49:16.886Z,19.80
2022-07-30T09:52:04.036Z,19.70
2022-07-30T09:54:53.174Z,19.60
2022-07-30T09:57:57.722Z,19.60
2022-07-30T10:00:45.602Z,19.60
2022-07-30T10:03:33.904Z,19.60
2022-07-30T10:06:38.102Z,19.70
2022-07-30T10:09:29.580Z,19.80
2022-07-30T10:12:16.646Z,20.00
2022-07-30T10:15:06.233Z,20.10
2022-07-30T10:17:54.023Z,20.20
2022-07-30T10:20:40.919Z,20.30
2022-07-30T10:23:29.716Z,20.30
2022-07-30T10:26:23.771Z,20.40
2022-07-30T10:29:12.915Z,20.50
2022-07-30T10:32:03.447Z,20.50
2022-07-30T10:34:49.983Z,20.70
2022-07-30T10:37:39.865Z,20.70
2022-07-30T10:40:34.920Z,20.70
2022-07-30T10:43:48.389Z,20.70
2022-07-30T10:46:50.091Z,20.70
2022-07-30T10:49:41.204Z,20.70
2022-07-30T10:52:44.414Z,20.70
2022-07-30T10:55:36.948Z,20.80
2022-07-30T10:58:25.465Z,20.70
2022-07-30T11:01:17.903Z,20.70
2022-07-30T11:04:21.304Z,20.60
2022-07-30T11:07:32.674Z,20.60
2022-07-30T11:10:40.238Z,20.70
2022-07-30T11:13:56.049Z,20.70
2022-07-30T11:17:01.811Z,20.70
2022-07-30T11:20:12.512Z,20.80
2022-07-30T11:23:14.025Z,20.90
2022-07-30T11:26:02.357Z,20.90
2022-07-30T11:28:50.046Z,20.90
2022-07-30T11:31:56.350Z,21.00
2022-07-30T11:34:45.659Z,21.00
2022-07-30T11:37:33.241Z,21.00
2022-07-30T11:40:25.982Z,21.00
2022-07-30T11:43:20.238Z,21.00
2022-07-30T11:46:15.768Z,21.00
2022-07-30T11:49:08.546Z,21.10
2022-07-30T11:51:55.692Z,21.00
2022-07-30T11:54:53.609Z,21.00
2022-07-30T11:57:43.236Z,21.10
2022-07-30T12:00:37.962Z,21.20
2022-07-30T12:03:26.636Z,21.20
2022-07-30T12:06:18.158Z,21.30
2022-07-30T12:09:05.250Z,21.30
2022-07-30T12:11:52.170Z,21.40
2022-07-30T12:14:40.109Z,21.40
2022-07-30T12:17:45.777Z,21.40
2022-07-30T12:20:32.600Z,21.40
2022-07-30T12:23:21.574Z,21.40
2022-07-30T12:26:21.414Z,21.50
2022-07-30T12:29:13.915Z,21.50
2022-07-30T12:32:08.650Z,21.50
2022-07-30T12:34:58.515Z,21.50
2022-07-30T12:38:04.770Z,21.40
2022-07-30T12:41:01.337Z,21.50
2022-07-30T12:43:49.883Z,21.40
2022-07-30T12:46:39.962Z,21.40
2022-07-30T12:49:37.809Z,21.40
2022-07-30T12:52:35.907Z,21.40
2022-07-30T12:55:31.047Z,21.30
2022-07-30T12:58:17.554Z,21.30
2022-07-30T13:01:04.274Z,21.30
2022-07-30T13:03:51.232Z,21.30
2022-07-30T13:06:40.366Z,21.30
2022-07-30T13:09:28.143Z,21.30
2022-07-30T13:12:15.205Z,21.30
2022-07-30T13:15:01.752Z,21.30
2022-07-30T13:17:48.354Z,21.30
2022-07-30T13:20:34.737Z,21.30
2022-07-30T13:23:21.732Z,21.30
2022-07-30T13:26:12.230Z,21.30
2022-07-30T13:29:01.718Z,21.30
2022-07-30T13:31:48.610Z,21.30
2022-07-30T13:34:34.826Z,21.30
2022-07-30T13:37:21.265Z,21.40
2022-07-30T13:40:11.566Z,21.40
2022-07-30T13:42:59.383Z,21.40
2022-07-30T13:45:45.731Z,21.40
2022-07-30T13:48:32.674Z,21.40
2022-07-30T13:51:19.052Z,21.50
2022-07-30T13:54:05.662Z,21.60
2022-07-30T13:56:52.188Z,21.60
2022-07-30T13:59:40.050Z,21.60
2022-07-30T14:02:26.570Z,21.70
2022-07-30T14:05:14.970Z,21.70
2022-07-30T14:08:01.666Z,21.80
2022-07-30T14:10:48.143Z,21.90
2022-07-30T14:13:34.812Z,22.00
2022-07-30T14:16:44.150Z,22.00
2022-07-30T14:19:29.933Z,22.00
2022-07-30T14:22:17.049Z,22.00
2022-07-30T14:25:03.553Z,22.10
2022-07-30T14:27:51.451Z,22.20
2022-07-30T14:30:38.197Z,22.30
2022-07-30T14:33:26.029Z,22.40
2022-07-30T14:36:12.797Z,22.40
2022-07-30T14:39:01.290Z,22.60
2022-07-30T14:41:47.950Z,22.60
2022-07-30T14:44:39.172Z,22.70
2022-07-30T14:50:13.963Z,22.80
2022-07-30T14:53:02.422Z,22.90
2022-07-30T14:55:49.873Z,22.90
2022-07-30T14:58:36.177Z,22.90
2022-07-30T15:01:22.489Z,22.90
2022-07-30T15:04:11.493Z,22.90
2022-07-30T15:06:59.712Z,22.90
2022-07-30T15:09:47.653Z,22.90
2022-07-30T15:12:33.912Z,22.90
2022-07-30T15:15:20.190Z,22.90
2022-07-30T15:18:10.741Z,22.90
2022-07-30T15:20:57.024Z,23.00
2022-07-30T15:23:44.727Z,23.10
2022-07-30T15:26:30.994Z,23.10
2022-07-30T15:29:17.501Z,23.10
2022-07-30T15:32:04.585Z,23.20
2022-07-30T15:34:51.744Z,23.20
2022-07-30T15:37:38.463Z,23.20
2022-07-30T15:40:26.132Z,23.20
2022-07-30T15:43:12.729Z,23.20
2022-07-30T15:45:59.095Z,23.20
2022-07-30T15:48:45.324Z,23.20
2022-07-30T15:51:33.210Z,23.10
2022-07-30T15:54:23.297Z,23.10
2022-07-30T15:57:11.167Z,23.10
2022-07-30T15:59:58.822Z,22.90
2022-07-30T16:02:45.403Z,22.80
2022-07-30T16:05:51.148Z,22.80
2022-07-30T16:08:38.582Z,22.80
2022-07-30T16:11:25.148Z,22.80
2022-07-30T16:14:12.746Z,22.80
2022-07-30T16:16:59.073Z,22.80
2022-07-30T16:19:46.771Z,22.80
2022-07-30T16:22:33.219Z,22.80
2022-07-30T16:25:19.759Z,22.80
2022-07-30T16:28:06.411Z,22.70
2022-07-30T16:30:54.562Z,22.70
2022-07-30T16:33:40.796Z,22.60
2022-07-30T16:36:27.330Z,22.60
2022-07-30T16:39:13.966Z,22.50
2022-07-30T16:42:00.596Z,22.50
2022-07-30T16:44:47.690Z,22.60
2022-07-30T16:47:35.526Z,22.60
2022-07-30T16:50:22.182Z,22.50
2022-07-30T16:53:11.857Z,22.50
2022-07-30T16:56:00.735Z,22.50
2022-07-30T16:58:47.081Z,22.40
2022-07-30T17:01:34.064Z,22.40
2022-07-30T17:04:22.299Z,22.30
2022-07-30T17:07:08.658Z,22.30
2022-07-30T17:09:54.914Z,22.30
2022-07-30T17:12:50.828Z,22.20
2022-07-30T17:15:37.953Z,22.30
2022-07-30T17:18:24.510Z,22.20
2022-07-30T17:21:12.176Z,22.20
2022-07-30T17:23:58.527Z,22.10
2022-07-30T17:26:46.619Z,22.00
2022-07-30T17:29:32.943Z,21.90
2022-07-30T17:32:20.304Z,21.80
2022-07-30T17:35:12.139Z,21.80
2022-07-30T17:38:01.463Z,21.70
2022-07-30T17:40:49.051Z,21.60
2022-07-30T17:43:35.748Z,21.60
2022-07-30T17:46:22.221Z,21.60
2022-07-30T17:49:08.638Z,21.60
2022-07-30T17:51:55.360Z,21.60
2022-07-30T17:54:43.221Z,21.60
2022-07-30T17:57:29.833Z,21.50
2022-07-30T18:00:16.839Z,21.50
2022-07-30T18:03:03.486Z,21.50
2022-07-30T18:05:50.304Z,21.40
2022-07-30T18:08:36.907Z,21.40
2022-07-30T18:11:24.539Z,21.40
2022-07-30T18:14:10.835Z,21.30
2022-07-30T18:19:45.702Z,21.20
2022-07-30T18:22:32.568Z,21.10
2022-07-30T18:25:19.516Z,21.10
2022-07-30T18:28:07.331Z,21.00
2022-07-30T18:30:54.989Z,20.90
2022-07-30T18:33:41.544Z,20.80
2022-07-30T18:36:27.844Z,20.70
2022-07-30T18:39:14.221Z,20.70
2022-07-30T18:42:00.979Z,20.60
2022-07-30T18:44:49.207Z,20.60
2022-07-30T18:47:35.409Z,20.50
2022-07-30T18:50:22.230Z,20.50
2022-07-30T18:53:15.291Z,20.40
2022-07-30T18:58:49.437Z,20.20
2022-07-30T19:01:39.144Z,20.20
2022-07-30T19:04:26.053Z,20.10
2022-07-30T19:07:12.677Z,20.10
2022-07-30T19:10:00.037Z,20.10
2022-07-30T19:12:46.450Z,20.10
2022-07-30T19:15:33.275Z,20.00
2022-07-30T19:18:21.089Z,19.90
2022-07-30T19:21:13.698Z,19.90
2022-07-30T19:24:00.897Z,19.80
2022-07-30T19:26:48.363Z,19.80
2022-07-30T19:29:34.640Z,19.70
2022-07-30T19:32:21.490Z,19.80
2022-07-30T19:35:10.271Z,19.70
2022-07-30T19:38:01.258Z,19.70
2022-07-30T19:40:49.309Z,19.60
2022-07-30T19:43:36.194Z,19.60
2022-07-30T19:46:24.315Z,19.60
2022-07-30T19:49:11.046Z,19.50
2022-07-30T19:52:10.978Z,19.60
2022-07-30T19:55:17.208Z,19.50
2022-07-30T19:58:17.531Z,19.50
2022-07-30T20:01:08.531Z,19.50
2022-07-30T20:03:55.156Z,19.50
2022-07-30T20:06:49.046Z,19.50
2022-07-30T20:09:37.381Z,19.50
2022-07-30T20:12:25.725Z,19.50
2022-07-30T20:15:16.894Z,19.40
2022-07-30T20:18:03.593Z,19.40
2022-07-30T20:20:52.749Z,19.40
2022-07-30T20:23:40.983Z,19.30
2022-07-30T20:26:29.458Z,19.30
2022-07-30T20:29:19.419Z,19.30
2022-07-30T20:32:09.302Z,19.20
2022-07-30T20:34:56.944Z,19.20
2022-07-30T20:37:55.178Z,19.10
2022-07-30T20:40:46.676Z,19.10
2022-07-30T20:43:35.149Z,19.00
2022-07-30T20:46:38.304Z,19.00
2022-07-30T20:49:34.254Z,19.00
2022-07-30T20:52:22.612Z,19.00
2022-07-30T20:55:14.356Z,18.90
2022-07-30T20:58:11.187Z,18.90
2022-07-30T21:01:04.898Z,18.80
2022-07-30T21:04:01.007Z,18.80
2022-07-30T21:06:47.892Z,18.80
2022-07-30T21:09:52.215Z,18.70
2022-07-30T21:12:39.451Z,18.70
2022-07-30T21:15:26.475Z,18.70
2022-07-30T21:18:14.649Z,18.60
2022-07-30T21:21:01.484Z,18.60
2022-07-30T21:23:52.719Z,18.60
2022-07-30T21:26:40.304Z,18.50
2022-07-30T21:29:28.067Z,18.50
2022-07-30T21:32:14.769Z,18.50
2022-07-30T21:35:08.412Z,18.40
2022-07-30T21:37:55.127Z,18.40
2022-07-30T21:40:42.368Z,18.30
2022-07-30T21:46:35.776Z,18.30
2022-07-30T21:49:23.468Z,18.30
2022-07-30T21:52:11.688Z,18.30
2022-07-30T21:54:58.271Z,18.20
2022-07-30T21:57:50.713Z,18.20
2022-07-30T22:00:45.403Z,18.10
2022-07-30T22:04:03.144Z,18.10
2022-07-30T22:06:40.104Z,18.10
2022-07-30T22:09:34.027Z,18.10
2022-07-30T22:12:20.859Z,18.10
2022-07-30T22:15:09.136Z,18.10
2022-07-30T22:17:58.338Z,18.00
2022-07-30T22:20:47.418Z,18.00
2022-07-30T22:23:33.913Z,18.00
2022-07-30T22:26:23.119Z,18.00
2022-07-30T22:29:13.035Z,18.00
2022-07-30T22:31:59.696Z,18.00
2022-07-30T22:34:46.367Z,17.90
2022-07-30T22:37:34.208Z,18.00
2022-07-30T22:40:20.886Z,17.90
2022-07-30T22:43:15.810Z,17.80
2022-07-30T22:46:02.590Z,17.80
2022-07-30T22:49:01.037Z,17.80
2022-07-30T22:51:59.303Z,17.70
2022-07-30T22:54:54.543Z,17.70
2022-07-30T22:57:41.931Z,17.70
2022-07-30T23:00:30.215Z,17.80
2022-07-30T23:03:16.952Z,17.70
2022-07-30T23:06:03.241Z,17.60
2022-07-30T23:08:50.326Z,17.70
2022-07-30T23:11:38.783Z,17.60
2022-07-30T23:12:27.669Z,18.30
2022-07-30T23:14:26.862Z,17.60
2022-07-30T23:17:14.846Z,17.60
2022-07-30T23:20:01.162Z,17.50
2022-07-30T23:22:47.930Z,17.60
2022-07-30T23:25:38.958Z,17.60
2022-07-30T23:28:26.915Z,17.50
2022-07-30T23:31:13.182Z,17.50
2022-07-30T23:34:00.779Z,17.50
2022-07-30T23:36:48.521Z,17.50
2022-07-30T23:39:35.210Z,17.40
2022-07-30T23:42:21.477Z,17.40
2022-07-30T23:45:08.456Z,17.40
2022-07-30T23:48:01.403Z,17.40
2022-07-30T23:50:51.927Z,17.40
2022-07-30T23:53:38.258Z,17.40
2022-07-30T23:56:24.594Z,17.40
2022-07-30T23:59:11.729Z,17.40
